createdAt,value
2023-03-20T00:01:49.330Z,6.93
2023-03-20T00:04:16.734Z,7.17
2023-03-20T00:06:44.074Z,7.37
2023-03-20T00:09:11.263Z,6.83
2023-03-20T00:11:58.261Z,7.00
2023-03-20T00:17:36.974Z,6.47
2023-03-20T00:20:04.529Z,7.40
2023-03-20T00:22:31.756Z,6.87
2023-03-20T00:24:58.952Z,6.57
2023-03-20T00:27:35.149Z,7.73
2023-03-20T00:30:02.547Z,5.73
2023-03-20T00:32:29.772Z,6.60
2023-03-20T00:34:59.502Z,6.67
2023-03-20T00:37:26.775Z,6.73
2023-03-20T00:39:54.105Z,7.07
2023-03-20T00:42:22.294Z,7.50
2023-03-20T00:44:51.127Z,5.70
2023-03-20T00:47:19.679Z,6.20
2023-03-20T00:49:47.734Z,6.90
2023-03-20T00:56:04.228Z,6.47
2023-03-20T00:58:33.523Z,6.10
2023-03-20T01:01:00.857Z,6.47
2023-03-20T01:03:28.231Z,6.37
2023-03-20T01:05:55.522Z,6.43
2023-03-20T01:08:23.872Z,5.90
2023-03-20T01:13:50.996Z,7.37
2023-03-20T01:16:20.569Z,6.73
2023-03-20T01:18:48.868Z,6.43
2023-03-20T01:21:37.974Z,7.13
2023-03-20T01:24:27.410Z,6.93
2023-03-20T01:26:54.870Z,6.07
2023-03-20T01:29:24.575Z,6.90
2023-03-20T01:31:52.698Z,6.00
2023-03-20T01:34:21.297Z,5.97
2023-03-20T01:36:50.502Z,7.17
2023-03-20T01:39:39.385Z,6.00
2023-03-20T01:42:07.034Z,6.40
2023-03-20T01:44:37.270Z,7.00
2023-03-20T01:47:12.477Z,7.57
2023-03-20T01:53:40.475Z,6.50
2023-03-20T01:56:14.711Z,6.97
2023-03-20T01:58:49.544Z,8.43
2023-03-20T02:01:18.767Z,7.63
2023-03-20T02:03:49.076Z,8.50
2023-03-20T02:06:40.591Z,7.20
2023-03-20T02:12:04.167Z,9.07
2023-03-20T02:14:32.027Z,7.53
2023-03-20T02:17:29.838Z,7.33
2023-03-20T02:20:05.349Z,8.70
2023-03-20T02:22:53.684Z,8.13
2023-03-20T02:32:49.621Z,8.10
2023-03-20T02:35:44.171Z,8.60
2023-03-20T02:38:21.254Z,8.83
2023-03-20T02:40:54.639Z,9.83
2023-03-20T02:43:25.666Z,9.97
2023-03-20T02:46:25.006Z,8.93
2023-03-20T02:48:54.907Z,8.63
2023-03-20T02:51:27.848Z,9.50
2023-03-20T02:54:06.676Z,9.83
2023-03-20T02:57:02.522Z,8.63
2023-03-20T02:59:42.399Z,9.00
2023-03-20T03:02:10.323Z,9.63
2023-03-20T03:04:39.545Z,9.20
2023-03-20T03:07:08.522Z,8.80
2023-03-20T03:09:39.870Z,8.97
2023-03-20T03:12:11.025Z,10.30
2023-03-20T03:14:40.076Z,9.17
2023-03-20T03:17:13.409Z,9.10
2023-03-20T03:19:43.879Z,9.60
2023-03-20T03:22:11.831Z,8.47
2023-03-20T03:28:30.587Z,7.17
2023-03-20T03:30:58.525Z,8.07
2023-03-20T03:33:27.200Z,7.37
2023-03-20T03:35:56.630Z,8.10
2023-03-20T03:38:43.614Z,8.50
2023-03-20T03:41:19.026Z,8.50
2023-03-20T03:43:53.435Z,8.60
2023-03-20T03:46:25.521Z,8.83
2023-03-20T03:48:55.996Z,8.77
2023-03-20T03:51:24.622Z,8.00
2023-03-20T03:54:02.193Z,7.50
2023-03-20T03:56:31.730Z,8.27
2023-03-20T04:02:47.980Z,8.33
2023-03-20T04:05:17.009Z,8.60
2023-03-20T04:07:45.453Z,9.47
2023-03-20T04:10:12.792Z,9.67
2023-03-20T04:12:56.591Z,8.83
2023-03-20T04:15:24.067Z,9.67
2023-03-20T04:17:52.731Z,9.40
2023-03-20T04:20:20.354Z,8.57
2023-03-20T04:22:48.779Z,8.47
2023-03-20T04:25:18.165Z,7.93
2023-03-20T04:28:04.558Z,8.30
2023-03-20T04:30:55.562Z,9.03
2023-03-20T04:33:35.118Z,8.00
2023-03-20T04:36:21.167Z,8.53
2023-03-20T04:39:11.606Z,7.87
2023-03-20T04:42:02.879Z,7.27
2023-03-20T04:44:30.374Z,8.27
2023-03-20T04:46:58.540Z,7.97
2023-03-20T04:49:27.133Z,7.07
2023-03-20T04:51:54.871Z,7.70
2023-03-20T04:54:34.907Z,8.30
2023-03-20T04:57:02.717Z,8.53
2023-03-20T04:59:42.463Z,8.60
2023-03-20T05:02:09.767Z,8.20
2023-03-20T05:04:39.312Z,9.47
2023-03-20T05:07:06.937Z,7.33
2023-03-20T05:10:08.223Z,8.70
2023-03-20T05:13:01.124Z,7.23
2023-03-20T05:15:44.827Z,8.67
2023-03-20T05:18:37.734Z,7.93
2023-03-20T05:21:26.008Z,7.33
2023-03-20T05:24:11.582Z,7.40
2023-03-20T05:26:41.480Z,7.53
2023-03-20T05:29:36.068Z,8.30
2023-03-20T05:32:27.744Z,7.73
2023-03-20T05:34:57.836Z,7.90
2023-03-20T05:37:35.764Z,7.60
2023-03-20T05:40:29.662Z,8.50
2023-03-20T05:47:10.674Z,7.13
2023-03-20T05:49:56.606Z,7.37
2023-03-20T05:52:42.434Z,7.50
2023-03-20T05:55:19.937Z,6.97
2023-03-20T05:58:03.393Z,8.03
2023-03-20T06:00:50.632Z,7.77
2023-03-20T06:03:41.472Z,7.03
2023-03-20T06:06:14.605Z,6.97
2023-03-20T06:08:43.496Z,7.43
2023-03-20T06:11:11.105Z,6.17
2023-03-20T06:13:39.584Z,6.27
2023-03-20T06:16:07.690Z,6.33
2023-03-20T06:18:36.602Z,6.87
2023-03-20T06:21:04.411Z,7.17
2023-03-20T06:23:52.129Z,6.40
2023-03-20T06:26:53.440Z,7.27
2023-03-20T06:29:20.804Z,6.50
2023-03-20T06:31:50.404Z,6.07
2023-03-20T06:34:26.189Z,5.53
2023-03-20T06:36:53.438Z,5.87
2023-03-20T06:39:25.093Z,8.17
2023-03-20T06:42:12.280Z,6.57
2023-03-20T06:44:41.936Z,6.47
2023-03-20T06:47:15.533Z,6.33
2023-03-20T06:49:45.934Z,6.53
2023-03-20T06:59:00.234Z,5.93
2023-03-20T07:01:27.919Z,5.87
2023-03-20T07:03:55.737Z,5.53
2023-03-20T07:06:28.286Z,5.77
2023-03-20T07:08:55.581Z,6.23
2023-03-20T07:11:23.135Z,7.13
2023-03-20T07:13:53.524Z,5.50
2023-03-20T07:16:57.527Z,5.50
2023-03-20T07:19:24.964Z,6.57
2023-03-20T07:21:59.705Z,5.70
2023-03-20T07:24:26.991Z,5.80
2023-03-20T07:26:54.248Z,5.73
2023-03-20T07:29:22.031Z,5.80
2023-03-20T07:31:49.611Z,5.50
2023-03-20T07:34:27.173Z,6.10
2023-03-20T07:36:55.777Z,5.00
2023-03-20T07:39:23.464Z,6.47
2023-03-20T07:42:13.598Z,5.67
2023-03-20T07:44:50.986Z,6.03
2023-03-20T07:47:18.322Z,5.70
2023-03-20T07:49:46.911Z,5.53
2023-03-20T07:52:14.788Z,5.37
2023-03-20T07:54:42.061Z,5.63
2023-03-20T07:57:09.469Z,5.57
2023-03-20T07:59:36.721Z,6.00
2023-03-20T08:02:03.944Z,6.23
2023-03-20T08:04:31.258Z,5.80
2023-03-20T08:07:00.133Z,5.97
2023-03-20T08:09:27.669Z,5.60
2023-03-20T08:11:55.089Z,5.70
2023-03-20T08:14:22.611Z,6.33
2023-03-20T08:17:02.353Z,5.50
2023-03-20T08:19:37.207Z,5.73
2023-03-20T08:22:05.775Z,4.70
2023-03-20T08:24:33.081Z,4.93
2023-03-20T08:27:00.261Z,5.73
2023-03-20T08:29:27.824Z,5.20
2023-03-20T08:31:55.116Z,6.63
2023-03-20T08:34:24.132Z,5.17
2023-03-20T08:36:51.448Z,4.60
2023-03-20T08:39:20.114Z,5.33
2023-03-20T08:41:47.404Z,5.87
2023-03-20T08:44:14.854Z,4.27
2023-03-20T08:46:42.095Z,5.60
2023-03-20T08:49:09.330Z,5.37
2023-03-20T08:51:36.702Z,6.07
2023-03-20T08:54:03.892Z,6.37
2023-03-20T08:56:32.462Z,6.30
2023-03-20T08:58:59.793Z,6.30
2023-03-20T09:01:41.784Z,6.00
2023-03-20T09:04:14.749Z,6.90
2023-03-20T09:06:42.083Z,7.13
2023-03-20T09:09:09.534Z,6.40
2023-03-20T09:11:38.344Z,6.83
2023-03-20T09:14:05.621Z,7.43
2023-03-20T09:16:32.867Z,6.93
2023-03-20T09:19:00.324Z,7.77
2023-03-20T09:21:27.835Z,7.50
2023-03-20T09:23:55.186Z,7.00
2023-03-20T09:26:22.437Z,8.43
2023-03-20T09:28:51.289Z,8.60
2023-03-20T09:31:18.621Z,9.03
2023-03-20T09:33:45.946Z,9.97
2023-03-20T09:36:13.440Z,7.93
2023-03-20T09:38:40.724Z,9.47
2023-03-20T09:41:08.185Z,8.67
2023-03-20T09:43:53.056Z,9.47
2023-03-20T09:46:25.816Z,8.50
2023-03-20T09:48:59.258Z,8.30
2023-03-20T09:51:32.503Z,9.67
2023-03-20T09:54:02.959Z,8.67
2023-03-20T09:56:31.397Z,11.20
2023-03-20T09:59:01.352Z,10.00
2023-03-20T10:01:32.095Z,10.73
2023-03-20T10:04:01.518Z,9.20
2023-03-20T10:06:35.147Z,10.00
2023-03-20T10:09:03.155Z,9.50
2023-03-20T10:11:39.398Z,9.13
2023-03-20T10:14:16.234Z,9.23
2023-03-20T10:16:52.127Z,9.37
2023-03-20T10:19:23.588Z,8.43
2023-03-20T10:21:52.822Z,9.53
2023-03-20T10:24:23.504Z,11.17
2023-03-20T10:26:52.320Z,10.37
2023-03-20T10:29:24.936Z,10.93
2023-03-20T10:31:56.516Z,9.70
2023-03-20T10:34:32.269Z,10.07
2023-03-20T10:37:04.812Z,9.10
2023-03-20T10:39:38.773Z,10.13
2023-03-20T10:42:11.969Z,9.67
2023-03-20T10:44:41.781Z,10.50
2023-03-20T10:47:10.951Z,8.90
2023-03-20T10:49:39.808Z,10.27
2023-03-20T10:52:11.431Z,8.50
2023-03-20T10:54:41.325Z,9.67
2023-03-20T10:57:11.743Z,8.77
2023-03-20T10:59:40.290Z,10.23
2023-03-20T11:02:12.324Z,10.07
2023-03-20T11:04:40.272Z,9.23
2023-03-20T11:07:12.864Z,11.77
2023-03-20T11:09:40.139Z,12.47
2023-03-20T11:12:25.747Z,10.93
2023-03-20T11:14:58.100Z,11.60
2023-03-20T11:17:29.183Z,9.90
2023-03-20T11:20:03.144Z,10.13
2023-03-20T11:28:52.242Z,10.67
2023-03-20T11:31:21.076Z,10.47
2023-03-20T11:33:53.751Z,10.20
2023-03-20T11:36:22.934Z,10.63
2023-03-20T11:38:51.081Z,10.20
2023-03-20T11:44:00.839Z,9.87
2023-03-20T11:46:28.245Z,9.77
2023-03-20T11:49:07.377Z,9.43
2023-03-20T11:58:40.690Z,9.53
2023-03-20T12:01:09.173Z,10.33
2023-03-20T12:03:44.314Z,8.70
2023-03-20T12:06:16.494Z,9.07
2023-03-20T12:08:46.841Z,8.93
2023-03-20T12:13:50.625Z,9.33
2023-03-20T12:16:20.068Z,8.47
2023-03-20T12:18:49.224Z,9.20
2023-03-20T12:21:23.239Z,9.17
2023-03-20T12:23:53.040Z,7.53
2023-03-20T12:26:40.830Z,8.07
2023-03-20T12:29:31.057Z,8.07
2023-03-20T12:32:07.570Z,7.97
2023-03-20T12:34:43.410Z,8.07
2023-03-20T12:37:12.628Z,8.50
2023-03-20T12:39:54.364Z,7.33
2023-03-20T12:42:28.255Z,8.03
2023-03-20T12:48:25.096Z,8.50
2023-03-20T12:50:55.805Z,7.30
2023-03-20T12:53:35.378Z,7.00
2023-03-20T12:56:26.869Z,6.90
2023-03-20T13:02:51.153Z,6.40
2023-03-20T13:05:25.843Z,6.43
2023-03-20T13:07:59.643Z,7.20
2023-03-20T13:10:32.116Z,5.83
2023-03-20T13:13:04.165Z,5.33
2023-03-20T13:15:52.190Z,5.60
2023-03-20T13:18:22.715Z,6.37
2023-03-20T13:20:51.478Z,6.00
2023-03-20T13:23:21.596Z,6.10
2023-03-20T13:32:14.089Z,6.20
2023-03-20T13:34:52.794Z,6.93
2023-03-20T13:37:24.777Z,8.13
2023-03-20T13:39:59.087Z,7.17
2023-03-20T13:42:29.918Z,9.57
2023-03-20T13:47:42.331Z,9.40
2023-03-20T13:50:17.320Z,9.47
2023-03-20T13:52:48.987Z,10.50
2023-03-20T13:55:36.074Z,8.20
2023-03-20T14:01:59.961Z,11.80
2023-03-20T14:04:28.950Z,10.33
2023-03-20T14:06:56.987Z,11.73
2023-03-20T14:09:34.678Z,12.50
2023-03-20T14:12:03.777Z,10.40
2023-03-20T14:14:52.787Z,11.67
2023-03-20T14:17:21.227Z,11.27
2023-03-20T14:19:50.180Z,11.53
2023-03-20T14:22:19.296Z,11.47
2023-03-20T14:25:06.220Z,10.50
2023-03-20T14:31:27.780Z,10.90
2023-03-20T14:33:59.927Z,10.50
2023-03-20T14:36:29.766Z,11.53
2023-03-20T14:39:06.212Z,10.13
2023-03-20T14:41:38.414Z,9.70
2023-03-20T14:44:09.890Z,8.77
2023-03-20T14:46:44.729Z,7.00
2023-03-20T14:49:23.801Z,5.97
2023-03-20T14:51:54.721Z,4.80
2023-03-20T14:54:26.666Z,4.57
2023-03-20T14:56:54.082Z,4.00
2023-03-20T14:59:36.770Z,3.90
2023-03-20T15:02:04.666Z,4.67
2023-03-20T15:04:38.738Z,4.43
2023-03-20T15:07:11.727Z,5.27
2023-03-20T15:16:25.842Z,4.20
2023-03-20T15:18:53.663Z,4.53
2023-03-20T15:21:21.636Z,4.70
2023-03-20T15:23:50.303Z,4.70
2023-03-20T15:26:18.725Z,4.80
2023-03-20T15:29:02.235Z,4.30
2023-03-20T15:31:30.389Z,3.97
2023-03-20T15:33:58.029Z,3.37
2023-03-20T15:36:27.068Z,4.17
2023-03-20T15:39:16.169Z,4.73
2023-03-20T15:42:11.862Z,4.57
2023-03-20T15:44:49.170Z,4.43
2023-03-20T15:47:17.443Z,3.90
2023-03-20T15:49:49.422Z,4.23
2023-03-20T15:52:19.023Z,3.40
2023-03-20T15:54:49.024Z,3.50
2023-03-20T15:57:20.170Z,3.80
2023-03-20T16:00:03.819Z,4.30
2023-03-20T16:02:34.038Z,3.83
2023-03-20T16:05:01.385Z,4.03
2023-03-20T16:07:30.572Z,2.97
2023-03-20T16:13:17.153Z,4.40
2023-03-20T16:15:45.159Z,5.00
2023-03-20T16:18:15.102Z,3.53
2023-03-20T16:20:44.323Z,4.03
2023-03-20T16:23:11.836Z,4.07
2023-03-20T16:25:40.783Z,2.97
2023-03-20T16:30:51.832Z,3.97
2023-03-20T16:33:20.620Z,3.57
2023-03-20T16:35:49.337Z,5.07
2023-03-20T16:38:17.629Z,3.60
2023-03-20T16:40:46.300Z,3.50
2023-03-20T16:50:34.957Z,3.13
2023-03-20T16:53:02.865Z,2.77
2023-03-20T16:55:31.629Z,3.07
2023-03-20T16:58:09.881Z,3.17
2023-03-20T17:00:43.202Z,3.50
2023-03-20T17:03:14.301Z,3.27
2023-03-20T17:05:49.844Z,2.80
2023-03-20T17:08:18.510Z,3.57
2023-03-20T17:10:57.905Z,3.10
2023-03-20T17:13:42.328Z,3.53
2023-03-20T17:16:11.116Z,3.37
2023-03-20T17:18:38.487Z,2.67
2023-03-20T17:21:06.001Z,2.60
2023-03-20T17:27:32.682Z,2.77
2023-03-20T17:30:01.255Z,3.53
2023-03-20T17:32:28.551Z,2.90
2023-03-20T17:34:56.961Z,2.57
2023-03-20T17:37:28.352Z,2.87
2023-03-20T17:39:56.763Z,3.37
2023-03-20T17:42:24.825Z,2.97
2023-03-20T17:44:52.085Z,2.43
2023-03-20T17:47:22.670Z,2.20
2023-03-20T17:49:50.443Z,2.30
2023-03-20T17:52:18.672Z,2.37
2023-03-20T17:54:46.406Z,3.50
2023-03-20T17:57:19.418Z,2.30
2023-03-20T17:59:46.673Z,2.10
2023-03-20T18:02:14.056Z,2.50
2023-03-20T18:04:42.851Z,2.40
2023-03-20T18:07:10.422Z,2.60
2023-03-20T18:09:37.752Z,1.87
2023-03-20T18:12:05.262Z,2.53
2023-03-20T18:14:32.482Z,2.23
2023-03-20T18:16:59.749Z,2.40
2023-03-20T18:19:28.050Z,2.00
2023-03-20T18:21:57.003Z,2.30
2023-03-20T18:24:24.576Z,2.53
2023-03-20T18:26:52.310Z,2.63
2023-03-20T18:29:19.714Z,2.70
2023-03-20T18:31:47.209Z,2.70
2023-03-20T18:34:14.617Z,3.60
2023-03-20T18:36:41.886Z,3.10
2023-03-20T18:39:12.228Z,2.93
2023-03-20T18:41:39.470Z,3.00
2023-03-20T18:44:06.687Z,2.83
2023-03-20T18:46:34.030Z,3.07
2023-03-20T18:49:01.369Z,3.43
2023-03-20T18:51:28.766Z,3.23
2023-03-20T18:53:56.008Z,2.93
2023-03-20T18:56:25.649Z,2.03
2023-03-20T18:58:53.604Z,3.33
2023-03-20T19:01:21.503Z,2.80
2023-03-20T19:03:48.898Z,2.67
2023-03-20T19:06:17.129Z,2.23
2023-03-20T19:08:45.004Z,3.20
2023-03-20T19:11:12.359Z,2.73
2023-03-20T19:13:40.968Z,2.20
2023-03-20T19:16:13.671Z,2.40
2023-03-20T19:18:40.989Z,2.17
2023-03-20T19:21:08.270Z,2.30
2023-03-20T19:23:35.540Z,2.00
2023-03-20T19:26:02.830Z,2.10
2023-03-20T19:28:39.118Z,2.97
2023-03-20T19:31:09.217Z,2.20
2023-03-20T19:33:37.145Z,2.70
2023-03-20T19:36:05.025Z,2.20
2023-03-20T19:38:32.751Z,2.73
2023-03-20T19:41:00.231Z,2.70
2023-03-20T19:43:28.974Z,3.10
2023-03-20T19:45:59.100Z,3.30
2023-03-20T19:48:43.285Z,3.00
2023-03-20T19:51:17.156Z,3.13
2023-03-20T19:53:44.546Z,3.60
2023-03-20T19:56:12.099Z,4.27
2023-03-20T19:58:39.429Z,3.60
2023-03-20T20:01:14.769Z,3.87
2023-03-20T20:03:44.224Z,3.20
2023-03-20T20:06:12.340Z,3.60
2023-03-20T20:08:47.995Z,3.63
2023-03-20T20:11:16.311Z,4.03
2023-03-20T20:14:04.141Z,3.97
2023-03-20T20:16:30.909Z,4.20
2023-03-20T20:18:59.662Z,4.27
2023-03-20T20:24:14.372Z,4.27
2023-03-20T20:26:53.308Z,4.30
2023-03-20T20:29:21.643Z,4.03
2023-03-20T20:31:49.202Z,4.00
2023-03-20T20:39:52.573Z,4.00
2023-03-20T20:42:19.980Z,4.10
2023-03-20T20:44:47.414Z,4.97
2023-03-20T20:47:15.297Z,4.63
2023-03-20T20:49:46.741Z,5.50
2023-03-20T20:52:14.588Z,5.50
2023-03-20T20:54:41.932Z,6.27
2023-03-20T20:57:11.176Z,6.10
2023-03-20T20:59:38.858Z,7.47
2023-03-20T21:02:06.277Z,6.37
2023-03-20T21:04:33.991Z,6.73
2023-03-20T21:07:11.463Z,6.10
2023-03-20T21:09:40.341Z,6.80
2023-03-20T21:12:08.454Z,5.63
2023-03-20T21:14:36.407Z,4.77
2023-03-20T21:17:03.709Z,6.37
2023-03-20T21:19:31.736Z,5.83
2023-03-20T21:21:59.003Z,6.47
2023-03-20T21:24:33.241Z,5.60
2023-03-20T21:27:01.450Z,7.13
2023-03-20T21:29:28.823Z,5.97
2023-03-20T21:31:56.173Z,6.40
2023-03-20T21:34:23.706Z,8.27
2023-03-20T21:36:50.923Z,5.70
2023-03-20T21:39:18.192Z,7.07
2023-03-20T21:41:47.209Z,6.17
2023-03-20T21:44:17.429Z,5.87
2023-03-20T21:47:19.072Z,6.67
2023-03-20T21:56:00.030Z,6.17
2023-03-20T22:15:33.790Z,8.70
2023-03-20T22:18:19.373Z,8.70
2023-03-20T22:24:01.649Z,9.53
2023-03-20T22:29:24.554Z,9.30
2023-03-20T22:32:10.955Z,10.10
2023-03-20T22:35:22.781Z,9.93
2023-03-20T22:45:31.537Z,9.10
2023-03-20T22:48:07.005Z,9.47
2023-03-20T22:50:34.390Z,9.67
2023-03-20T22:53:01.739Z,10.57
2023-03-20T22:55:30.219Z,11.03
2023-03-20T22:58:06.779Z,10.80
2023-03-20T23:00:35.263Z,8.43
2023-03-20T23:03:17.299Z,9.53
2023-03-20T23:05:51.320Z,9.20
2023-03-20T23:08:18.537Z,9.60
2023-03-20T23:10:46.580Z,9.20
2023-03-20T23:13:14.270Z,8.97
2023-03-20T23:15:41.613Z,9.83
2023-03-20T23:18:08.858Z,9.80
2023-03-20T23:20:36.352Z,11.27
2023-03-20T23:23:05.165Z,10.43
2023-03-20T23:25:39.230Z,11.13
2023-03-20T23:28:07.840Z,11.07
2023-03-20T23:30:44.279Z,9.83
2023-03-20T23:33:15.495Z,11.10
2023-03-20T23:35:42.932Z,8.57
2023-03-20T23:38:11.905Z,9.57
2023-03-20T23:40:39.404Z,9.03
2023-03-20T23:43:06.941Z,9.43
2023-03-20T23:45:34.461Z,9.40
2023-03-20T23:48:01.835Z,9.10
2023-03-20T23:50:42.629Z,9.73
2023-03-20T23:53:20.630Z,10.70
2023-03-20T23:55:49.155Z,10.57
